createdAt,value
2023-03-02T00:00:16.476Z,96722.03
2023-03-02T00:02:23.202Z,96713.75
2023-03-02T00:04:28.793Z,96716.09
2023-03-02T00:06:33.197Z,96715.19
2023-03-02T00:08:37.520Z,96712.94
2023-03-02T00:10:41.583Z,96722.78
2023-03-02T00:12:45.695Z,96709.63
2023-03-02T00:14:49.750Z,96713.59
2023-03-02T00:16:55.145Z,96708.41
2023-03-02T00:18:59.250Z,96722.78
2023-03-02T00:21:03.301Z,96709.94
2023-03-02T00:23:07.363Z,96712.09
2023-03-02T00:25:12.100Z,96709.13
2023-03-02T00:27:16.580Z,96713.25
2023-03-02T00:29:20.811Z,96706.25
2023-03-02T00:31:24.943Z,96710.00
2023-03-02T00:33:30.434Z,96702.13
2023-03-02T00:35:38.949Z,96700.81
2023-03-02T00:37:43.300Z,96698.94
2023-03-02T00:39:47.842Z,96694.78
2023-03-02T00:41:51.960Z,96693.56
2023-03-02T00:43:56.418Z,96695.75
2023-03-02T00:46:00.833Z,96698.34
2023-03-02T00:48:05.527Z,96696.38
2023-03-02T00:50:12.010Z,96692.69
2023-03-02T00:52:16.398Z,96699.00
2023-03-02T00:54:20.507Z,96694.78
2023-03-02T00:56:24.730Z,96699.72
2023-03-02T00:58:30.392Z,96703.16
2023-03-02T01:00:35.555Z,96695.56
2023-03-02T01:02:44.174Z,96690.50
2023-03-02T01:04:53.065Z,96683.59
2023-03-02T01:06:58.680Z,96686.41
2023-03-02T01:09:02.795Z,96685.09
2023-03-02T01:11:14.349Z,96688.28
2023-03-02T01:13:18.429Z,96691.00
2023-03-02T01:15:22.603Z,96691.75
2023-03-02T01:17:27.053Z,96681.59
2023-03-02T01:23:31.163Z,96676.25
2023-03-02T01:25:35.222Z,96676.44
2023-03-02T01:27:39.342Z,96664.03
2023-03-02T01:29:44.077Z,96665.97
2023-03-02T01:31:48.288Z,96657.63
2023-03-02T01:33:52.834Z,96658.97
2023-03-02T01:35:56.985Z,96657.41
2023-03-02T01:38:01.148Z,96651.53
2023-03-02T01:40:09.022Z,96649.22
2023-03-02T01:42:13.120Z,96647.47
2023-03-02T01:44:40.634Z,96644.28
2023-03-02T01:46:44.794Z,96645.41
2023-03-02T01:48:49.750Z,96642.69
2023-03-02T01:51:00.155Z,96639.84
2023-03-02T01:53:05.408Z,96643.84
2023-03-02T01:55:13.648Z,96649.59
2023-03-02T01:57:20.872Z,96647.84
2023-03-02T01:59:25.003Z,96654.72
2023-03-02T02:01:29.334Z,96642.09
2023-03-02T02:03:33.438Z,96644.50
2023-03-02T02:05:37.967Z,96632.97
2023-03-02T02:07:42.404Z,96627.09
2023-03-02T02:09:48.108Z,96624.47
2023-03-02T02:11:53.553Z,96631.41
2023-03-02T02:13:59.609Z,96639.94
2023-03-02T02:16:03.899Z,96636.69
2023-03-02T02:18:08.123Z,96627.28
2023-03-02T02:20:19.477Z,96627.56
2023-03-02T02:22:30.612Z,96626.19
2023-03-02T02:24:38.177Z,96626.59
2023-03-02T02:26:44.679Z,96618.09
2023-03-02T02:28:56.909Z,96628.16
2023-03-02T02:31:07.223Z,96624.56
2023-03-02T02:33:13.287Z,96618.91
2023-03-02T02:35:19.937Z,96619.19
2023-03-02T02:37:24.915Z,96623.94
2023-03-02T02:39:31.107Z,96613.97
2023-03-02T02:41:36.414Z,96617.59
2023-03-02T02:43:42.330Z,96612.41
2023-03-02T02:45:46.704Z,96614.91
2023-03-02T02:47:51.058Z,96613.75
2023-03-02T02:49:55.725Z,96618.97
2023-03-02T02:51:59.819Z,96609.09
2023-03-02T02:54:04.648Z,96626.00
2023-03-02T02:56:12.696Z,96623.22
2023-03-02T02:58:27.397Z,96624.78
2023-03-02T03:00:33.360Z,96624.84
2023-03-02T03:02:40.869Z,96622.44
2023-03-02T03:04:45.034Z,96617.00
2023-03-02T03:06:53.131Z,96617.69
2023-03-02T03:08:59.354Z,96619.97
2023-03-02T03:11:09.466Z,96625.06
2023-03-02T03:13:13.613Z,96622.66
2023-03-02T03:15:18.264Z,96624.72
2023-03-02T03:17:23.732Z,96634.59
2023-03-02T03:19:33.821Z,96639.47
2023-03-02T03:21:39.154Z,96638.03
2023-03-02T03:23:43.541Z,96632.53
2023-03-02T03:25:47.611Z,96634.38
2023-03-02T03:27:51.718Z,96627.81
2023-03-02T03:29:57.085Z,96632.53
2023-03-02T03:32:01.636Z,96631.06
2023-03-02T03:34:07.576Z,96638.44
2023-03-02T03:36:13.769Z,96623.75
2023-03-02T03:38:17.925Z,96633.81
2023-03-02T03:40:23.746Z,96638.91
2023-03-02T03:42:28.285Z,96636.63
2023-03-02T03:44:34.125Z,96639.94
2023-03-02T03:46:38.530Z,96643.69
2023-03-02T03:48:42.839Z,96637.66
2023-03-02T03:50:48.530Z,96640.97
2023-03-02T03:52:52.640Z,96641.94
2023-03-02T03:55:02.284Z,96644.97
2023-03-02T03:57:07.472Z,96646.72
2023-03-02T03:59:13.689Z,96647.41
2023-03-02T04:01:34.839Z,96649.81
2023-03-02T04:03:39.307Z,96638.97
2023-03-02T04:05:43.531Z,96647.91
2023-03-02T04:07:49.279Z,96647.69
2023-03-02T04:10:03.336Z,96644.91
2023-03-02T04:12:09.889Z,96646.41
2023-03-02T04:14:15.927Z,96652.22
2023-03-02T04:16:20.551Z,96647.63
2023-03-02T04:18:24.729Z,96651.06
2023-03-02T04:20:29.015Z,96650.25
2023-03-02T04:22:33.750Z,96654.03
2023-03-02T04:24:39.198Z,96650.25
2023-03-02T04:26:43.600Z,96656.06
2023-03-02T04:28:50.587Z,96656.94
2023-03-02T04:30:55.755Z,96660.66
2023-03-02T04:33:00.071Z,96659.81
2023-03-02T04:35:06.499Z,96658.84
2023-03-02T04:37:11.056Z,96671.59
2023-03-02T04:39:15.895Z,96668.97
2023-03-02T04:41:24.556Z,96666.59
2023-03-02T04:43:28.609Z,96667.41
2023-03-02T04:45:33.088Z,96664.44
2023-03-02T04:47:37.161Z,96661.66
2023-03-02T04:49:41.288Z,96671.72
2023-03-02T04:51:46.453Z,96675.25
2023-03-02T04:53:50.768Z,96673.53
2023-03-02T04:55:54.826Z,96675.06
2023-03-02T04:58:00.223Z,96672.09
2023-03-02T05:00:07.317Z,96680.16
2023-03-02T05:02:12.222Z,96676.63
2023-03-02T05:04:16.557Z,96690.09
2023-03-02T05:06:21.958Z,96686.88
2023-03-02T05:08:25.995Z,96686.56
2023-03-02T05:10:30.226Z,96685.94
2023-03-02T05:12:54.862Z,96687.19
2023-03-02T05:15:00.284Z,96693.06
2023-03-02T05:17:04.366Z,96692.25
2023-03-02T05:19:09.652Z,96690.66
2023-03-02T05:21:14.230Z,96696.00
2023-03-02T05:23:25.205Z,96693.06
2023-03-02T05:25:30.673Z,96696.50
2023-03-02T05:27:35.301Z,96693.84
2023-03-02T05:29:39.410Z,96694.03
2023-03-02T05:31:45.456Z,96695.41
2023-03-02T05:33:49.870Z,96696.03
2023-03-02T05:35:54.070Z,96694.19
2023-03-02T05:37:58.205Z,96692.44
2023-03-02T05:40:02.275Z,96698.03
2023-03-02T05:42:06.517Z,96696.41
2023-03-02T05:44:11.987Z,96696.41
2023-03-02T05:46:17.267Z,96698.22
2023-03-02T05:48:22.784Z,96705.69
2023-03-02T05:50:26.965Z,96705.63
2023-03-02T05:52:31.026Z,96703.25
2023-03-02T05:54:35.122Z,96703.06
2023-03-02T05:56:39.270Z,96702.72
2023-03-02T05:58:43.320Z,96702.59
2023-03-02T06:00:47.599Z,96705.41
2023-03-02T06:02:51.725Z,96711.28
2023-03-02T06:04:57.216Z,96713.78
2023-03-02T06:07:01.300Z,96718.22
2023-03-02T06:09:05.812Z,96720.94
2023-03-02T06:11:10.122Z,96722.22
2023-03-02T06:13:14.194Z,96715.56
2023-03-02T06:15:18.410Z,96727.56
2023-03-02T06:17:22.516Z,96738.66
2023-03-02T06:19:26.762Z,96736.56
2023-03-02T06:21:32.172Z,96740.31
2023-03-02T06:23:36.282Z,96741.81
2023-03-02T06:25:43.608Z,96745.84
2023-03-02T06:27:49.837Z,96746.88
2023-03-02T06:29:54.205Z,96747.91
2023-03-02T06:31:58.426Z,96748.19
2023-03-02T06:34:02.860Z,96742.50
2023-03-02T06:36:07.339Z,96746.22
2023-03-02T06:38:13.238Z,96752.78
2023-03-02T06:40:17.399Z,96755.59
2023-03-02T06:42:21.518Z,96751.41
2023-03-02T06:44:25.586Z,96748.09
2023-03-02T06:46:29.651Z,96757.16
2023-03-02T06:48:34.106Z,96762.84
2023-03-02T06:50:38.682Z,96755.81
2023-03-02T06:52:42.741Z,96755.22
2023-03-02T06:54:48.215Z,96752.09
2023-03-02T06:56:52.295Z,96765.69
2023-03-02T06:58:56.366Z,96774.94
2023-03-02T07:01:00.523Z,96770.59
2023-03-02T07:03:04.666Z,96778.28
2023-03-02T07:05:09.226Z,96778.72
2023-03-02T07:07:13.274Z,96782.63
2023-03-02T07:09:17.382Z,96777.25
2023-03-02T07:11:22.790Z,96784.22
2023-03-02T07:13:26.859Z,96786.00
2023-03-02T07:15:31.269Z,96791.94
2023-03-02T07:17:35.508Z,96792.09
2023-03-02T07:19:40.968Z,96788.38
2023-03-02T07:21:45.152Z,96794.09
2023-03-02T07:23:49.228Z,96798.72
2023-03-02T07:25:53.638Z,96802.47
2023-03-02T07:27:59.089Z,96802.78
2023-03-02T07:30:03.283Z,96810.28
2023-03-02T07:32:09.273Z,96803.75
2023-03-02T07:34:15.426Z,96814.72
2023-03-02T07:36:19.458Z,96810.13
2023-03-02T07:38:23.559Z,96811.00
2023-03-02T07:40:27.654Z,96808.53
2023-03-02T07:42:32.064Z,96816.22
2023-03-02T07:44:39.934Z,96812.03
2023-03-02T07:46:44.050Z,96812.97
2023-03-02T07:48:48.175Z,96825.34
2023-03-02T07:50:52.264Z,96824.28
2023-03-02T07:52:58.103Z,96824.06
2023-03-02T07:55:03.772Z,96830.81
2023-03-02T07:57:07.836Z,96824.19
2023-03-02T07:59:12.794Z,96825.25
2023-03-02T08:01:18.218Z,96832.03
2023-03-02T08:03:22.315Z,96825.50
2023-03-02T08:05:26.406Z,96822.91
2023-03-02T08:07:30.473Z,96826.13
2023-03-02T08:09:34.552Z,96827.41
2023-03-02T08:11:38.625Z,96836.91
2023-03-02T08:13:51.540Z,96828.44
2023-03-02T08:16:01.402Z,96816.78
2023-03-02T08:18:06.969Z,96828.13
2023-03-02T08:20:11.719Z,96828.00
2023-03-02T08:22:15.781Z,96823.97
2023-03-02T08:24:19.913Z,96827.19
2023-03-02T08:26:23.967Z,96837.94
2023-03-02T08:28:28.019Z,96829.16
2023-03-02T08:30:32.156Z,96835.06
2023-03-02T08:32:36.389Z,96837.03
2023-03-02T08:34:42.003Z,96830.78
2023-03-02T08:36:46.151Z,96830.00
2023-03-02T08:38:50.467Z,96826.59
2023-03-02T08:40:54.547Z,96828.56
2023-03-02T08:42:58.948Z,96838.19
2023-03-02T08:45:03.220Z,96832.31
2023-03-02T08:47:07.435Z,96828.34
2023-03-02T08:49:11.576Z,96833.38
2023-03-02T08:51:18.092Z,96838.81
2023-03-02T08:53:22.171Z,96837.69
2023-03-02T08:55:26.526Z,96839.41
2023-03-02T08:57:30.635Z,96840.34
2023-03-02T08:59:34.766Z,96839.38
2023-03-02T09:01:39.160Z,96836.94
2023-03-02T09:03:43.305Z,96832.09
2023-03-02T09:05:47.424Z,96832.13
2023-03-02T09:07:53.040Z,96831.88
2023-03-02T09:09:57.149Z,96836.63
2023-03-02T09:12:01.560Z,96834.97
2023-03-02T09:14:05.691Z,96837.66
2023-03-02T09:16:30.133Z,96845.00
2023-03-02T09:18:34.215Z,96839.25
2023-03-02T09:20:38.290Z,96849.09
2023-03-02T09:22:48.321Z,96848.56
2023-03-02T09:24:53.785Z,96846.44
2023-03-02T09:26:57.863Z,96842.00
2023-03-02T09:29:01.934Z,96850.34
2023-03-02T09:31:07.296Z,96851.31
2023-03-02T09:33:11.404Z,96849.38
2023-03-02T09:35:15.615Z,96853.97
2023-03-02T09:37:19.753Z,96850.00
2023-03-02T09:39:23.840Z,96846.75
2023-03-02T09:42:14.553Z,96853.97
2023-03-02T09:44:52.379Z,96853.59
2023-03-02T09:47:15.379Z,96854.25
2023-03-02T09:49:42.731Z,96857.53
2023-03-02T09:52:00.128Z,96858.66
2023-03-02T09:54:10.400Z,96866.69
2023-03-02T09:56:16.237Z,96867.47
2023-03-02T09:58:21.736Z,96871.59
2023-03-02T10:00:29.137Z,96872.47
2023-03-02T10:02:38.472Z,96875.91
2023-03-02T10:04:44.372Z,96880.09
2023-03-02T10:06:48.627Z,96872.53
2023-03-02T10:08:53.460Z,96868.00
2023-03-02T10:11:00.769Z,96869.13
2023-03-02T10:13:11.875Z,96871.38
2023-03-02T10:15:18.340Z,96878.25
2023-03-02T10:17:34.916Z,96880.56
2023-03-02T10:19:42.438Z,96880.28
2023-03-02T10:21:48.147Z,96886.16
2023-03-02T10:23:56.140Z,96880.44
2023-03-02T10:26:05.360Z,96877.31
2023-03-02T10:28:14.726Z,96879.50
2023-03-02T10:30:21.277Z,96878.16
2023-03-02T10:32:28.284Z,96882.13
2023-03-02T10:37:12.715Z,96885.84
2023-03-02T10:39:17.919Z,96884.66
2023-03-02T10:41:24.569Z,96889.25
2023-03-02T10:43:32.694Z,96873.91
2023-03-02T10:45:37.034Z,96872.91
2023-03-02T10:47:42.965Z,96875.06
2023-03-02T10:49:48.644Z,96875.06
2023-03-02T10:51:57.604Z,96872.78
2023-03-02T10:54:08.371Z,96870.00
2023-03-02T10:56:18.931Z,96867.91
2023-03-02T10:58:25.868Z,96874.44
2023-03-02T11:00:30.651Z,96873.66
2023-03-02T11:02:35.959Z,96868.72
2023-03-02T11:07:12.939Z,96878.00
2023-03-02T11:09:17.496Z,96876.41
2023-03-02T11:11:24.944Z,96874.75
2023-03-02T11:13:30.584Z,96876.56
2023-03-02T11:15:40.540Z,96884.00
2023-03-02T11:17:44.710Z,96879.50
2023-03-02T11:19:50.869Z,96878.53
2023-03-02T11:21:58.755Z,96872.38
2023-03-02T11:24:08.312Z,96872.91
2023-03-02T11:26:19.243Z,96872.31
2023-03-02T11:28:33.915Z,96878.22
2023-03-02T11:30:40.279Z,96873.81
2023-03-02T11:32:46.240Z,96869.72
2023-03-02T11:34:52.797Z,96874.44
2023-03-02T11:37:03.318Z,96881.78
2023-03-02T11:39:11.861Z,96876.19
2023-03-02T11:41:24.598Z,96878.63
2023-03-02T11:43:28.722Z,96880.22
2023-03-02T11:45:33.791Z,96866.47
2023-03-02T11:47:37.882Z,96870.75
2023-03-02T11:49:43.574Z,96870.09
2023-03-02T11:51:58.327Z,96871.25
2023-03-02T11:54:04.761Z,96863.88
2023-03-02T11:56:08.978Z,96865.53
2023-03-02T11:58:14.531Z,96865.84
2023-03-02T12:00:27.814Z,96864.72
2023-03-02T12:02:31.993Z,96872.75
2023-03-02T12:04:37.029Z,96861.97
2023-03-02T12:06:42.066Z,96867.84
2023-03-02T12:08:47.997Z,96854.94
2023-03-02T12:10:58.668Z,96858.53
2023-03-02T12:13:12.621Z,96862.44
2023-03-02T12:15:37.134Z,96859.00
2023-03-02T12:17:41.215Z,96859.16
2023-03-02T12:19:45.397Z,96851.81
2023-03-02T12:21:58.203Z,96861.25
2023-03-02T12:24:06.167Z,96858.13
2023-03-02T12:26:31.405Z,96854.03
2023-03-02T12:28:36.745Z,96857.81
2023-03-02T12:30:40.819Z,96859.31
2023-03-02T12:32:45.649Z,96853.47
2023-03-02T12:34:54.277Z,96853.88
2023-03-02T12:36:59.878Z,96856.00
2023-03-02T12:39:16.531Z,96846.38
2023-03-02T12:41:54.818Z,96852.34
2023-03-02T12:44:05.476Z,96852.94
2023-03-02T12:46:27.538Z,96849.84
2023-03-02T12:48:33.212Z,96850.50
2023-03-02T12:50:40.688Z,96848.91
2023-03-02T12:52:44.786Z,96838.53
2023-03-02T12:55:00.716Z,96836.59
2023-03-02T12:57:13.556Z,96834.69
2023-03-02T12:59:24.745Z,96832.28
2023-03-02T13:01:30.518Z,96833.78
2023-03-02T13:03:34.702Z,96830.38
2023-03-02T13:05:38.801Z,96828.75
2023-03-02T13:07:44.410Z,96831.38
2023-03-02T13:09:56.564Z,96829.88
2023-03-02T13:12:01.163Z,96831.41
2023-03-02T13:14:19.749Z,96823.50
2023-03-02T13:16:25.321Z,96821.19
2023-03-02T13:18:31.918Z,96819.22
2023-03-02T13:20:36.057Z,96823.50
2023-03-02T13:22:40.198Z,96818.78
2023-03-02T13:24:49.797Z,96818.78
2023-03-02T13:26:58.067Z,96815.84
2023-03-02T13:29:03.255Z,96818.06
2023-03-02T13:31:18.102Z,96814.97
2023-03-02T13:33:23.044Z,96815.03
2023-03-02T13:35:27.977Z,96813.34
2023-03-02T13:37:39.060Z,96819.88
2023-03-02T13:39:43.169Z,96816.59
2023-03-02T13:41:54.329Z,96810.88
2023-03-02T13:43:59.884Z,96819.84
2023-03-02T13:46:04.740Z,96815.94
2023-03-02T13:48:15.516Z,96808.09
2023-03-02T13:50:20.256Z,96809.75
2023-03-02T13:52:42.548Z,96800.41
2023-03-02T13:54:47.162Z,96806.66
2023-03-02T13:56:51.999Z,96806.00
2023-03-02T13:58:58.630Z,96807.16
2023-03-02T14:01:04.867Z,96805.06
2023-03-02T14:03:16.585Z,96804.22
2023-03-02T14:05:21.662Z,96803.25
2023-03-02T14:07:26.139Z,96804.19
2023-03-02T14:09:30.252Z,96804.97
2023-03-02T14:11:36.902Z,96814.66
2023-03-02T14:13:43.226Z,96814.38
2023-03-02T14:15:49.355Z,96809.78
2023-03-02T14:17:55.178Z,96813.22
2023-03-02T14:19:59.314Z,96809.78
2023-03-02T14:22:03.758Z,96810.75
2023-03-02T14:24:08.380Z,96809.78
2023-03-02T14:26:24.437Z,96806.97
2023-03-02T14:28:30.970Z,96810.19
2023-03-02T14:30:35.136Z,96806.81
2023-03-02T14:32:39.528Z,96807.97
2023-03-02T14:34:44.952Z,96813.69
2023-03-02T14:36:50.522Z,96815.03
2023-03-02T14:38:55.238Z,96821.41
2023-03-02T14:40:59.425Z,96818.16
2023-03-02T14:43:03.625Z,96813.22
2023-03-02T14:45:09.954Z,96821.88
2023-03-02T14:47:16.433Z,96818.59
2023-03-02T14:49:20.582Z,96824.34
2023-03-02T14:51:27.350Z,96822.22
2023-03-02T14:53:33.724Z,96819.94
2023-03-02T14:55:37.953Z,96828.78
2023-03-02T14:57:42.037Z,96822.53
2023-03-02T14:59:46.174Z,96829.59
2023-03-02T15:01:50.620Z,96821.09
2023-03-02T15:03:54.734Z,96833.53
2023-03-02T15:06:01.557Z,96826.31
2023-03-02T15:08:07.516Z,96823.72
2023-03-02T15:10:14.780Z,96826.69
2023-03-02T15:12:18.867Z,96832.03
2023-03-02T15:14:22.945Z,96832.38
2023-03-02T15:16:27.115Z,96832.38
2023-03-02T15:18:31.225Z,96833.19
2023-03-02T15:20:35.352Z,96834.69
2023-03-02T15:22:39.414Z,96836.50
2023-03-02T15:24:45.146Z,96835.50
2023-03-02T15:26:49.222Z,96842.53
2023-03-02T15:28:53.296Z,96840.88
2023-03-02T15:30:58.025Z,96845.16
2023-03-02T15:33:02.215Z,96847.13
2023-03-02T15:35:09.963Z,96836.81
2023-03-02T15:37:14.096Z,96845.66
2023-03-02T15:39:18.147Z,96841.41
2023-03-02T15:41:23.631Z,96842.25
2023-03-02T15:43:27.841Z,96848.13
2023-03-02T15:45:31.922Z,96849.72
2023-03-02T15:47:37.440Z,96854.66
2023-03-02T15:49:41.579Z,96859.91
2023-03-02T15:51:45.654Z,96861.50
2023-03-02T15:53:49.759Z,96864.47
2023-03-02T15:55:53.837Z,96869.34
2023-03-02T15:57:59.884Z,96867.75
2023-03-02T16:00:05.367Z,96867.91
2023-03-02T16:02:10.206Z,96874.09
2023-03-02T16:04:14.264Z,96872.47
2023-03-02T16:06:18.557Z,96876.72
2023-03-02T16:08:22.644Z,96880.31
2023-03-02T16:10:31.842Z,96880.81
2023-03-02T16:12:35.908Z,96892.09
2023-03-02T17:21:11.721Z,96940.13
2023-03-02T17:23:16.460Z,96944.06
2023-03-02T17:25:20.720Z,96950.44
2023-03-02T17:27:27.138Z,96956.31
2023-03-02T17:29:31.252Z,96947.81
2023-03-02T17:31:35.509Z,96959.75
2023-03-02T17:33:39.901Z,96956.63
2023-03-02T17:35:44.068Z,96961.84
2023-03-02T17:37:49.629Z,96965.31
2023-03-02T17:39:53.900Z,96966.94
2023-03-02T17:41:58.270Z,96970.56
2023-03-02T17:44:02.620Z,96972.03
2023-03-02T17:46:11.387Z,96975.44
2023-03-02T17:48:15.562Z,96977.09
2023-03-02T17:50:19.781Z,96978.41
2023-03-02T17:52:23.961Z,96964.66
2023-03-02T17:54:29.384Z,96970.41
2023-03-02T17:56:33.486Z,96970.91
2023-03-02T17:58:44.803Z,96974.97
2023-03-02T18:00:49.741Z,96979.72
2023-03-02T18:02:54.069Z,96977.75
2023-03-02T18:04:58.322Z,96979.31
2023-03-02T18:07:02.576Z,96977.84
2023-03-02T18:09:06.662Z,96978.69
2023-03-02T18:11:12.306Z,96981.78
2023-03-02T18:13:16.463Z,96991.94
2023-03-02T18:15:20.788Z,96993.38
2023-03-02T18:17:24.915Z,96998.47
2023-03-02T18:19:29.142Z,97006.00
2023-03-02T18:21:34.432Z,97004.50
2023-03-02T18:23:41.134Z,97008.00
2023-03-02T18:25:45.332Z,97007.78
2023-03-02T18:27:50.944Z,97011.50
2023-03-02T18:29:55.174Z,97011.88
2023-03-02T18:31:59.300Z,97015.31
2023-03-02T18:34:03.697Z,97012.53
2023-03-02T18:36:08.753Z,97017.09
2023-03-02T18:38:12.915Z,97020.41
2023-03-02T18:40:17.028Z,97017.56
2023-03-02T18:42:22.354Z,97022.47
2023-03-02T18:44:30.208Z,97017.31
2023-03-02T18:46:34.689Z,97023.00
2023-03-02T18:48:39.503Z,97025.59
2023-03-02T18:50:43.850Z,97027.69
2023-03-02T18:52:50.176Z,97019.72
2023-03-02T18:54:57.642Z,97032.94
2023-03-02T18:57:02.318Z,97028.06
2023-03-02T18:59:08.604Z,97026.59
2023-03-02T19:01:14.165Z,97028.84
2023-03-02T19:03:18.445Z,97031.50
2023-03-02T19:05:22.652Z,97034.72
2023-03-02T19:07:26.791Z,97033.53
2023-03-02T19:09:31.072Z,97031.59
2023-03-02T19:11:35.335Z,97035.09
2023-03-02T19:13:39.484Z,97032.28
2023-03-02T19:15:51.206Z,97042.59
2023-03-02T19:17:57.149Z,97037.22
2023-03-02T19:20:02.296Z,97039.81
2023-03-02T19:22:07.294Z,97035.00
2023-03-02T19:24:11.457Z,97026.38
2023-03-02T19:26:15.832Z,97037.78
2023-03-02T19:28:21.513Z,97041.41
2023-03-02T19:30:27.059Z,97038.19
2023-03-02T19:32:31.212Z,97030.41
2023-03-02T19:34:37.980Z,97026.94
2023-03-02T19:36:43.826Z,97031.84
2023-03-02T19:38:48.352Z,97031.97
2023-03-02T19:40:52.627Z,97030.13
2023-03-02T19:42:56.872Z,97030.09
2023-03-02T19:45:03.614Z,97030.97
2023-03-02T19:47:08.567Z,97019.41
2023-03-02T19:49:12.811Z,97034.78
2023-03-02T19:51:18.354Z,97036.91
2023-03-02T19:53:22.609Z,97040.03
2023-03-02T19:55:27.127Z,97038.88
2023-03-02T19:57:31.578Z,97048.69
2023-03-02T19:59:36.483Z,97039.84
2023-03-02T20:01:40.678Z,97042.28
2023-03-02T20:03:47.945Z,97041.31
2023-03-02T20:05:54.456Z,97042.31
2023-03-02T20:08:00.028Z,97040.19
2023-03-02T20:10:04.844Z,97038.19
2023-03-02T20:12:09.274Z,97045.84
2023-03-02T20:14:27.647Z,97037.41
2023-03-02T20:16:38.912Z,97038.19
2023-03-02T20:18:45.462Z,97038.03
2023-03-02T20:20:49.649Z,97044.91
2023-03-02T20:23:04.564Z,97050.31
2023-03-02T20:25:36.363Z,97045.44
2023-03-02T20:27:40.544Z,97042.97
2023-03-02T20:29:44.832Z,97042.47
2023-03-02T20:31:49.007Z,97042.94
2023-03-02T20:37:22.644Z,97037.25
2023-03-02T20:39:58.687Z,97042.28
2023-03-02T20:42:04.898Z,97038.22
2023-03-02T20:44:09.129Z,97047.19
2023-03-02T20:46:31.469Z,97044.44
2023-03-02T20:48:41.009Z,97046.34
2023-03-02T20:50:45.364Z,97053.06
2023-03-02T20:52:49.638Z,97051.81
2023-03-02T20:54:53.737Z,97057.19
2023-03-02T20:56:57.990Z,97059.31
2023-03-02T20:59:03.630Z,97061.25
2023-03-02T21:01:08.419Z,97057.34
2023-03-02T21:05:57.988Z,97058.34
2023-03-02T21:08:28.234Z,97066.50
2023-03-02T21:10:34.013Z,97065.03
2023-03-02T21:12:38.371Z,97067.47
2023-03-02T21:14:43.973Z,97061.28
2023-03-02T21:16:48.073Z,97063.72
2023-03-02T21:18:52.280Z,97061.28
2023-03-02T21:20:56.505Z,97064.22
2023-03-02T21:23:00.871Z,97061.13
2023-03-02T21:25:08.806Z,97058.66
2023-03-02T21:27:12.938Z,97063.38
2023-03-02T21:29:17.270Z,97059.31
2023-03-02T21:31:23.003Z,97068.47
2023-03-02T21:33:27.315Z,97063.88
2023-03-02T21:35:31.494Z,97062.25
2023-03-02T21:37:35.665Z,97060.47
2023-03-02T21:39:39.800Z,97064.88
2023-03-02T21:41:44.022Z,97060.94
2023-03-02T21:43:48.431Z,97062.91
2023-03-02T21:45:52.585Z,97060.28
2023-03-02T21:47:58.204Z,97055.53
2023-03-02T21:50:02.529Z,97047.88
2023-03-02T21:52:07.800Z,97047.06
2023-03-02T21:54:12.119Z,97049.50
2023-03-02T21:56:20.505Z,97050.00
2023-03-02T21:58:24.760Z,97044.91
2023-03-02T22:00:29.912Z,97048.19
2023-03-02T22:02:34.020Z,97049.19
2023-03-02T22:04:39.517Z,97048.03
2023-03-02T22:06:43.650Z,97048.19
2023-03-02T22:08:47.791Z,97044.28
2023-03-02T22:10:52.175Z,97049.50
2023-03-02T22:13:09.459Z,97021.19
2023-03-02T22:15:15.656Z,97021.03
2023-03-02T22:17:20.930Z,97020.38
2023-03-02T22:19:26.844Z,97016.63
2023-03-02T22:21:34.602Z,97020.03
2023-03-02T22:23:38.842Z,97022.91
2023-03-02T22:25:43.411Z,97018.63
2023-03-02T22:27:47.678Z,97053.13
2023-03-02T22:29:52.233Z,97058.97
2023-03-02T22:31:57.593Z,97055.75
2023-03-02T22:34:02.165Z,97047.31
2023-03-02T22:36:12.625Z,97040.00
2023-03-02T22:38:21.296Z,97035.53
2023-03-02T22:40:29.260Z,97036.03
2023-03-02T22:42:33.376Z,97034.41
2023-03-02T22:44:37.536Z,97013.69
2023-03-02T22:46:41.751Z,97016.16
2023-03-02T22:48:47.894Z,97022.88
2023-03-02T22:50:52.161Z,97023.53
2023-03-02T22:52:57.247Z,97020.75
2023-03-02T22:55:03.106Z,97013.56
2023-03-02T22:57:15.222Z,97023.97
2023-03-02T22:59:22.368Z,97034.78
2023-03-02T23:01:27.345Z,97038.69
2023-03-02T23:03:38.169Z,97034.31
2023-03-02T23:05:42.433Z,97038.84
2023-03-02T23:07:46.538Z,97043.25
2023-03-02T23:09:50.620Z,97041.94
2023-03-02T23:11:57.882Z,97033.28
2023-03-02T23:14:03.014Z,97030.44
2023-03-02T23:16:12.440Z,97029.28
2023-03-02T23:18:19.980Z,97034.88
2023-03-02T23:20:24.174Z,97035.69
2023-03-02T23:22:28.395Z,97037.31
2023-03-02T23:24:32.722Z,97040.59
2023-03-02T23:26:36.964Z,97029.47
2023-03-02T23:28:42.609Z,97034.06
2023-03-02T23:30:47.529Z,97029.25
2023-03-02T23:32:51.703Z,97031.56
2023-03-02T23:34:56.352Z,97035.16
2023-03-02T23:37:00.767Z,97030.28
2023-03-02T23:39:05.630Z,97033.72
2023-03-02T23:41:09.832Z,97038.28
2023-03-02T23:43:14.067Z,97037.31
2023-03-02T23:45:19.847Z,97029.59
2023-03-02T23:47:23.976Z,97029.78
2023-03-02T23:49:28.139Z,97020.56
2023-03-02T23:51:33.069Z,97026.19
2023-03-02T23:53:37.195Z,97023.44
2023-03-02T23:55:41.980Z,97021.28
2023-03-02T23:57:46.052Z,97021.13
2023-03-02T23:59:50.108Z,97023.09
